Time;durP1;ratioP1;P1;durP2;ratioP2;P2;SDS_P1;SDS_P2;PMS_P1;PMS_P2;Temp;Humidity;BMP_temperature;BMP_pressure;BME280_temperature;BME280_humidity;BME280_pressure;Samples;Min_cycle;Max_cycle;Signal;HPM_P1;HPM_P2
2021/12/07 09:16:57;;;;;;;43.10;24.52;;;3.30;99.90;;;;;;5112449;27;20385;-58
2021/12/07 09:19:23;;;;;;;41.25;23.77;;;3.40;99.90;;;;;;5101215;28;20539;-59
2021/12/07 09:21:49;;;;;;;40.05;23.33;;;3.50;99.90;;;;;;5067589;27;55369;-59
2021/12/07 09:24:16;;;;;;;45.35;26.42;;;3.50;99.90;;;;;;5036689;28;20033;-58
2021/12/07 09:26:42;;;;;;;42.53;24.42;;;3.60;99.90;;;;;;5035017;28;20040;-58
2021/12/07 09:29:08;;;;;;;37.30;22.08;;;3.60;99.90;;;;;;5052585;28;20029;-59
2021/12/07 09:31:38;;;;;;;40.65;21.92;;;3.70;99.90;;;;;;5049814;28;20527;-58
2021/12/07 09:34:06;;;;;;;36.28;20.95;;;3.80;99.90;;;;;;5041465;28;20109;-58
2021/12/07 09:36:33;;;;;;;34.78;20.10;;;3.80;99.90;;;;;;5039889;28;20032;-58
2021/12/07 09:39:00;;;;;;;35.13;20.25;;;3.90;99.90;;;;;;5047318;28;20395;-58
2021/12/07 09:41:26;;;;;;;32.92;17.88;;;3.90;99.90;;;;;;5046213;28;20029;-58
2021/12/07 09:43:52;;;;;;;36.67;21.38;;;4.00;99.90;;;;;;5039819;28;20034;-58
2021/12/07 09:46:19;;;;;;;33.05;19.92;;;4.00;99.90;;;;;;5048933;28;20163;-59
2021/12/07 09:48:47;;;;;;;38.45;23.40;;;3.90;99.90;;;;;;5044861;28;20033;-58
2021/12/07 09:51:16;;;;;;;39.15;19.77;;;4.00;99.90;;;;;;5041479;28;20075;-58
2021/12/07 09:53:45;;;;;;;32.95;19.42;;;4.00;99.90;;;;;;5051063;28;20041;-58
2021/12/07 09:56:27;;;;;;;33.30;19.00;;;4.00;99.90;;;;;;5054625;28;20331;-59
2021/12/07 09:58:55;;;;;;;31.40;18.75;;;4.10;99.90;;;;;;5061425;28;20469;-58
2021/12/07 10:01:23;;;;;;;29.00;18.00;;;4.10;99.90;;;;;;5053499;28;20132;-58
2021/12/07 10:03:53;;;;;;;32.88;18.02;;;4.10;99.90;;;;;;5054035;28;20032;-58
2021/12/07 10:06:19;;;;;;;29.95;18.80;;;4.10;99.90;;;;;;5039661;28;20103;-58
2021/12/07 10:08:49;;;;;;;43.03;22.70;;;4.10;99.90;;;;;;5051544;28;20029;-58
2021/12/07 10:11:16;;;;;;;40.97;20.95;;;4.30;99.90;;;;;;5050885;28;20040;-58
2021/12/07 10:13:44;;;;;;;37.22;22.10;;;4.40;99.90;;;;;;5057048;28;20036;-59
2021/12/07 10:16:14;;;;;;;41.90;22.92;;;4.50;99.90;;;;;;5066970;28;20052;-58
2021/12/07 10:18:42;;;;;;;37.50;20.42;;;4.70;99.90;;;;;;5051223;28;20025;-58
2021/12/07 10:21:23;;;;;;;34.22;18.60;;;4.60;99.90;;;;;;5050252;28;20390;-59
2021/12/07 10:24:00;;;;;;;31.98;18.75;;;4.60;99.90;;;;;;5051394;28;20052;-58
2021/12/07 10:26:32;;;;;;;39.13;23.27;;;4.50;99.90;;;;;;5048104;28;20039;-58
2021/12/07 10:29:13;;;;;;;33.50;20.70;;;4.40;99.90;;;;;;5036406;28;20467;-59
2021/12/07 10:31:46;;;;;;;32.15;18.25;;;4.30;99.90;;;;;;5037179;28;20056;-58
2021/12/07 10:34:25;;;;;;;34.40;19.17;;;4.20;99.90;;;;;;5037890;28;20039;-58
2021/12/07 10:37:03;;;;;;;35.45;20.83;;;4.20;99.90;;;;;;5038523;28;20032;-58
2021/12/07 10:39:43;;;;;;;40.63;22.48;;;4.20;99.90;;;;;;5039638;28;20103;-58
2021/12/07 10:42:21;;;;;;;48.63;24.92;;;4.20;99.90;;;;;;5036150;28;20513;-59
2021/12/07 10:44:53;;;;;;;52.03;27.45;;;4.10;99.90;;;;;;5037929;28;20056;-58
2021/12/07 10:47:33;;;;;;;55.45;30.05;;;4.20;99.90;;;;;;5033348;28;20204;-58
2021/12/07 10:50:15;;;;;;;;;;;4.20;99.90;;;;;;5043793;28;20586;-58
2021/12/07 10:52:45;;;;;;;37.25;20.23;;;4.20;99.90;;;;;;5032765;28;19912;-59
2021/12/07 10:55:24;;;;;;;32.83;18.33;;;4.10;99.90;;;;;;5036722;28;20042;-58
2021/12/07 10:57:57;;;;;;;33.42;18.42;;;4.00;99.90;;;;;;5067871;28;20087;-52
2021/12/07 11:00:45;;;;;;;;;;;3.90;99.90;;;;;;5034075;28;20104;-52
2021/12/07 11:03:17;;;;;;;37.33;20.25;;;3.90;99.90;;;;;;5036715;28;19909;-52
2021/12/07 11:05:50;;;;;;;45.95;24.88;;;3.90;99.90;;;;;;5035231;28;20026;-52
2021/12/07 11:08:19;;;;;;;43.90;23.05;;;3.90;99.90;;;;;;5036758;28;20048;-52
2021/12/07 11:10:48;;;;;;;41.60;20.52;;;3.90;99.90;;;;;;5029879;28;20045;-52
2021/12/07 11:13:23;;;;;;;44.28;23.80;;;3.80;99.90;;;;;;5029373;28;20057;-52
2021/12/07 11:15:54;;;;;;;39.38;22.88;;;3.70;99.90;;;;;;5022722;28;20406;-52
2021/12/07 11:18:36;;;;;;;41.38;22.45;;;3.70;99.90;;;;;;5024342;28;20040;-51
2021/12/07 11:21:11;;;;;;;31.50;19.10;;;3.70;99.90;;;;;;5035014;28;20029;-52
2021/12/07 11:23:37;;;;;;;40.97;22.75;;;3.60;99.90;;;;;;5034042;28;20108;-52
2021/12/07 11:31:30;;;;;;;37.45;22.10;;;3.70;99.90;;;;;;5037811;28;20029;-51
2021/12/07 11:34:11;;;;;;;41.35;22.65;;;3.60;99.90;;;;;;5042492;28;20037;-51
2021/12/07 11:36:54;;;;;;;36.08;20.73;;;3.60;99.90;;;;;;5035398;28;20033;-51
2021/12/07 11:39:31;;;;;;;36.28;20.73;;;3.70;99.90;;;;;;5034533;28;20087;-51
2021/12/07 11:42:11;;;;;;;48.30;24.08;;;3.70;99.90;;;;;;5046184;28;20040;-51
2021/12/07 11:45:01;;;;;;;31.25;18.25;;;3.70;99.90;;;;;;5033194;28;20112;-51
2021/12/07 11:47:35;;;;;;;39.42;20.10;;;3.80;99.90;;;;;;5038049;28;20402;-51
2021/12/07 11:50:14;;;;;;;35.60;20.52;;;3.80;99.90;;;;;;5046593;28;20028;-51
2021/12/07 11:52:40;;;;;;;38.30;20.55;;;3.80;99.90;;;;;;5021491;28;20443;-51
2021/12/07 11:55:07;;;;;;;31.30;19.25;;;3.60;99.90;;;;;;5027690;28;20038;-51
2021/12/07 11:57:34;;;;;;;39.50;20.55;;;3.60;99.90;;;;;;5020451;28;20025;-51
2021/12/07 12:00:01;;;;;;;35.22;19.00;;;3.70;99.90;;;;;;5021773;28;20036;-51
2021/12/07 12:02:27;;;;;;;51.03;22.85;;;3.70;99.90;;;;;;5024299;28;20586;-51
2021/12/07 12:04:53;;;;;;;37.15;20.33;;;3.80;99.90;;;;;;5017628;28;20045;-51
2021/12/07 12:07:19;;;;;;;41.63;20.55;;;3.80;99.90;;;;;;5024311;28;20185;-51
2021/12/07 12:09:51;;;;;;;41.47;21.77;;;3.80;99.90;;;;;;5015153;28;20474;-51
2021/12/07 12:12:32;;;;;;;37.85;21.00;;;3.80;99.90;;;;;;5040441;28;20029;-51
2021/12/07 12:15:23;;;;;;;43.95;21.15;;;3.90;99.90;;;;;;5043651;28;20041;-51
2021/12/07 12:18:08;;;;;;;34.42;19.20;;;3.80;99.90;;;;;;5056535;28;20037;-51
2021/12/07 12:20:47;;;;;;;59.28;22.30;;;3.80;99.90;;;;;;5040493;28;20029;-51
2021/12/07 12:23:33;;;;;;;38.22;19.73;;;3.80;99.90;;;;;;5055650;28;20048;-51
2021/12/07 12:26:09;;;;;;;40.58;21.40;;;3.80;99.90;;;;;;5047824;28;20033;-51
2021/12/07 12:28:40;;;;;;;45.05;21.95;;;3.80;99.90;;;;;;5033768;28;20072;-51
2021/12/07 12:31:08;;;;;;;44.50;22.58;;;3.80;99.90;;;;;;5046301;28;20021;-51
2021/12/07 12:34:13;;;;;;;64.97;27.27;;;3.70;99.90;;;;;;5026058;28;20364;-51
2021/12/07 12:36:39;;;;;;;39.85;22.95;;;3.70;99.90;;;;;;5017626;28;20127;-51
2021/12/07 12:39:07;;;;;;;55.97;24.88;;;3.70;99.90;;;;;;5019146;28;20026;-51
2021/12/07 12:41:33;;;;;;;49.08;23.52;;;3.70;99.90;;;;;;5016164;28;20116;-51
2021/12/07 12:44:08;;;;;;;45.33;23.50;;;3.70;99.90;;;;;;5028319;28;20033;-51
2021/12/07 12:46:37;;;;;;;63.47;30.60;;;3.70;99.90;;;;;;5034920;28;20049;-51
2021/12/07 12:49:07;;;;;;;61.60;29.58;;;3.70;99.90;;;;;;5041936;28;20051;-51
2021/12/07 12:51:55;;;;;;;66.43;31.80;;;3.70;99.90;;;;;;5043395;28;20029;-51
2021/12/07 12:54:21;;;;;;;56.80;27.10;;;3.80;99.90;;;;;;5034408;28;20036;-51
2021/12/07 12:56:48;;;;;;;104.93;41.05;;;3.70;99.90;;;;;;5043403;28;20104;-51
2021/12/07 12:59:14;;;;;;;64.32;29.52;;;3.70;99.90;;;;;;5042960;28;20025;-52
2021/12/07 13:01:46;;;;;;;46.10;23.60;;;3.70;99.90;;;;;;5054400;28;20028;-52
2021/12/07 13:04:12;;;;;;;58.75;27.58;;;3.70;99.90;;;;;;5040817;28;20033;-51
2021/12/07 13:07:00;;;;;;;61.22;28.73;;;3.70;99.90;;;;;;5035451;28;20041;-51
2021/12/07 13:09:54;;;;;;;66.20;29.92;;;3.80;99.90;;;;;;5035400;28;20040;-52
2021/12/07 13:12:24;;;;;;;52.78;24.95;;;3.80;99.90;;;;;;5032186;28;20053;-51
2021/12/07 13:14:50;;;;;;;52.67;27.38;;;3.90;99.90;;;;;;5038791;28;20131;-51
2021/12/07 13:17:25;;;;;;;63.95;31.45;;;3.80;99.90;;;;;;5031322;28;20056;-51
2021/12/07 13:20:06;;;;;;;79.00;36.13;;;3.90;99.90;;;;;;5032103;28;20065;-51
2021/12/07 13:22:38;;;;;;;48.20;25.80;;;3.90;99.90;;;;;;5032985;28;20532;-52
2021/12/07 13:25:24;;;;;;;62.53;29.08;;;3.80;99.90;;;;;;5024659;28;20018;-51
2021/12/07 13:28:12;;;;;;;60.45;30.58;;;3.80;99.90;;;;;;5026882;28;20026;-51
2021/12/07 13:30:41;;;;;;;97.80;44.03;;;3.90;99.90;;;;;;5025124;28;20038;-51
2021/12/07 13:33:31;;;;;;;102.60;43.85;;;3.90;99.90;;;;;;5025547;28;20029;-51
2021/12/07 13:35:58;;;;;;;103.00;45.75;;;3.90;99.90;;;;;;5032748;28;20033;-51
2021/12/07 13:38:30;;;;;;;96.00;41.55;;;3.90;99.90;;;;;;5033133;28;20774;-51
2021/12/07 13:41:28;;;;;;;72.43;34.28;;;3.90;99.90;;;;;;5023369;28;20111;-51
2021/12/07 13:43:56;;;;;;;74.57;34.80;;;3.90;99.90;;;;;;5003793;28;20038;-51
2021/12/07 13:46:25;;;;;;;89.22;39.15;;;4.00;99.90;;;;;;5022380;28;20036;-51
2021/12/07 13:49:11;;;;;;;112.10;47.05;;;3.90;99.90;;;;;;5034856;28;20037;-51
2021/12/07 13:51:38;;;;;;;108.10;45.38;;;3.90;99.90;;;;;;5034862;28;20398;-51
2021/12/07 13:54:06;;;;;;;67.43;30.70;;;4.00;99.90;;;;;;5034929;28;20038;-52
2021/12/07 13:56:40;;;;;;;87.28;37.40;;;4.00;99.90;;;;;;5034978;28;20044;-51
2021/12/07 13:59:11;;;;;;;58.33;28.38;;;4.00;99.90;;;;;;5035039;28;20383;-52
2021/12/07 14:01:40;;;;;;;78.85;35.58;;;4.10;99.90;;;;;;5034677;28;20037;-51
2021/12/07 14:04:08;;;;;;;69.07;32.13;;;4.00;99.90;;;;;;5038663;28;20026;-51
2021/12/07 14:06:35;;;;;;;67.18;28.45;;;4.00;99.90;;;;;;5028291;28;20037;-52
2021/12/07 14:09:09;;;;;;;60.40;28.42;;;3.90;99.90;;;;;;5038541;28;20029;-51
2021/12/07 14:11:37;;;;;;;66.93;32.00;;;4.00;99.90;;;;;;5038216;28;20037;-51
2021/12/07 14:14:12;;;;;;;63.92;33.67;;;4.00;99.90;;;;;;5037774;28;20049;-51
2021/12/07 14:16:40;;;;;;;88.28;36.95;;;4.00;99.90;;;;;;5037881;28;20041;-51
2021/12/07 14:19:06;;;;;;;72.65;33.42;;;4.00;99.90;;;;;;5032896;28;20534;-52
2021/12/07 14:21:32;;;;;;;75.72;35.25;;;4.00;99.90;;;;;;5023793;28;20041;-52
2021/12/07 14:24:06;;;;;;;66.00;31.15;;;3.90;99.90;;;;;;5036113;28;20051;-51
2021/12/07 14:26:37;;;;;;;77.53;35.97;;;3.90;99.90;;;;;;5032947;28;20059;-51
2021/12/07 14:29:23;;;;;;;56.55;29.50;;;3.90;99.90;;;;;;5035989;28;20463;-51
2021/12/07 14:31:58;;;;;;;51.33;27.80;;;3.90;99.90;;;;;;5021462;28;20586;-51
2021/12/07 14:34:32;;;;;;;56.60;27.55;;;3.80;99.90;;;;;;5024554;28;20037;-51
2021/12/07 14:37:00;;;;;;;48.10;25.00;;;3.70;99.90;;;;;;5036632;28;20462;-51
2021/12/07 14:39:46;;;;;;;64.75;28.52;;;3.80;99.90;;;;;;5037368;28;20033;-51
2021/12/07 14:42:15;;;;;;;67.95;31.95;;;3.70;99.90;;;;;;5037302;28;20052;-51
2021/12/07 14:44:48;;;;;;;54.13;28.60;;;3.80;99.90;;;;;;5037091;28;20037;-51
2021/12/07 14:47:15;;;;;;;55.15;26.27;;;3.70;99.90;;;;;;5037307;28;20116;-51
2021/12/07 14:49:46;;;;;;;51.38;26.38;;;3.60;99.90;;;;;;5037327;28;20488;-51
2021/12/07 14:52:15;;;;;;;56.50;28.30;;;3.60;99.90;;;;;;5037392;28;20027;-51
2021/12/07 14:54:42;;;;;;;63.00;26.40;;;3.60;99.90;;;;;;5037210;28;20025;-51
2021/12/07 14:57:09;;;;;;;68.43;34.17;;;3.60;99.90;;;;;;5037224;28;20080;-51
2021/12/07 14:59:37;;;;;;;62.65;29.77;;;3.70;99.90;;;;;;5037154;28;20029;-51
2021/12/07 15:02:04;;;;;;;64.97;31.35;;;3.60;99.90;;;;;;5037084;28;20467;-51
2021/12/07 15:04:30;;;;;;;72.63;30.95;;;3.50;99.90;;;;;;5037120;28;20038;-51
2021/12/07 15:07:03;;;;;;;73.25;34.35;;;3.50;99.90;;;;;;5037126;28;20059;-51
2021/12/07 15:09:34;;;;;;;72.35;32.85;;;3.50;99.90;;;;;;5037085;28;20057;-51
2021/12/07 15:12:00;;;;;;;70.53;31.98;;;3.50;99.90;;;;;;5036735;28;20120;-51
2021/12/07 15:14:28;;;;;;;70.15;32.03;;;3.50;99.90;;;;;;5036700;28;20059;-51
2021/12/07 15:17:00;;;;;;;81.50;36.20;;;3.50;99.90;;;;;;5036478;28;20502;-51
2021/12/07 15:19:28;;;;;;;81.75;39.83;;;3.50;99.90;;;;;;5036635;28;20083;-51
2021/12/07 15:21:54;;;;;;;69.32;35.30;;;3.60;99.90;;;;;;5036541;28;20467;-51
2021/12/07 15:24:23;;;;;;;60.85;28.63;;;3.50;99.90;;;;;;5036657;28;20032;-51
2021/12/07 15:26:51;;;;;;;63.28;33.08;;;3.50;99.90;;;;;;5036560;28;20033;-51
2021/12/07 15:29:22;;;;;;;73.78;33.85;;;3.50;99.90;;;;;;5036720;28;20118;-51
2021/12/07 15:31:51;;;;;;;70.78;35.83;;;3.60;99.90;;;;;;5036331;28;20497;-51
2021/12/07 15:34:19;;;;;;;59.60;31.55;;;3.50;99.90;;;;;;5036651;28;20033;-51
2021/12/07 15:36:48;;;;;;;59.63;32.05;;;3.50;99.90;;;;;;5036546;28;20125;-51
2021/12/07 15:39:18;;;;;;;64.20;29.98;;;3.40;99.90;;;;;;5036508;28;20049;-51
2021/12/07 15:41:49;;;;;;;54.77;28.37;;;3.40;99.90;;;;;;5036422;28;20037;-51
2021/12/07 15:44:16;;;;;;;;;;;3.50;99.90;;;;;;5036952;28;20255;-51
2021/12/07 15:46:52;;;;;;;60.17;28.67;;;3.50;99.90;;;;;;5036263;28;20353;-51
2021/12/07 15:49:40;;;;;;;50.95;28.63;;;3.40;99.90;;;;;;5036305;28;20029;-51
2021/12/07 15:52:12;;;;;;;60.58;31.23;;;3.40;99.90;;;;;;5036072;28;20033;-51
2021/12/07 15:54:39;;;;;;;83.45;38.67;;;3.50;99.90;;;;;;5036080;28;20029;-51
2021/12/07 15:57:04;;;;;;;96.22;42.22;;;3.50;99.90;;;;;;5035993;28;20087;-51
2021/12/07 15:59:32;;;;;;;81.80;37.63;;;3.50;99.90;;;;;;5036248;28;20033;-51
2021/12/07 16:01:59;;;;;;;90.95;40.60;;;3.50;99.90;;;;;;5035954;28;20028;-51
2021/12/07 16:04:34;;;;;;;78.55;37.47;;;3.40;99.90;;;;;;5035864;28;20184;-51
2021/12/07 16:07:04;;;;;;;75.28;34.03;;;3.30;99.90;;;;;;5035967;28;20386;-51
2021/12/07 16:09:31;;;;;;;88.22;38.90;;;3.40;99.90;;;;;;5036039;28;20045;-51
2021/12/07 16:12:14;;;;;;;73.93;35.22;;;3.40;99.90;;;;;;5035790;28;20309;-51
2021/12/07 16:14:40;;;;;;;71.82;37.92;;;3.30;99.90;;;;;;5035582;28;20041;-52
2021/12/07 16:17:20;;;;;;;72.30;37.50;;;3.30;99.90;;;;;;5035596;28;20068;-51
2021/12/07 16:19:47;;;;;;;78.32;38.72;;;3.30;99.90;;;;;;5035769;28;20025;-51
2021/12/07 16:22:13;;;;;;;62.70;29.38;;;3.40;99.90;;;;;;5035740;28;20033;-51
2021/12/07 16:24:41;;;;;;;74.40;37.08;;;3.30;99.90;;;;;;5035152;28;20156;-51
2021/12/07 16:27:07;;;;;;;54.47;27.95;;;3.30;99.90;;;;;;5035534;28;20308;-51
2021/12/07 16:29:33;;;;;;;58.38;31.02;;;3.30;99.90;;;;;;5035404;28;20033;-51
2021/12/07 16:32:02;;;;;;;70.85;37.00;;;3.30;99.90;;;;;;5035420;28;20117;-51
2021/12/07 16:34:28;;;;;;;48.75;25.83;;;3.30;99.90;;;;;;5035563;28;20060;-51
2021/12/07 16:36:54;;;;;;;70.95;34.63;;;3.30;99.90;;;;;;5035293;28;20069;-51
2021/12/07 16:39:20;;;;;;;55.47;30.10;;;3.30;99.90;;;;;;5035395;28;20053;-51
2021/12/07 16:41:46;;;;;;;56.53;30.42;;;3.20;99.90;;;;;;5035233;28;20429;-51
2021/12/07 16:44:12;;;;;;;50.53;27.65;;;3.20;99.90;;;;;;5035187;28;20036;-51
2021/12/07 16:46:39;;;;;;;51.83;29.35;;;3.20;99.90;;;;;;5035192;28;20069;-51
2021/12/07 16:49:06;;;;;;;53.25;27.75;;;3.10;99.90;;;;;;5035155;28;20360;-51
2021/12/07 16:51:33;;;;;;;49.22;27.27;;;3.20;99.90;;;;;;5035115;28;20021;-51
2021/12/07 16:54:00;;;;;;;44.95;24.83;;;3.10;99.90;;;;;;5035071;28;20036;-51
2021/12/07 16:56:27;;;;;;;48.05;26.95;;;3.00;99.90;;;;;;5034942;28;20033;-51
2021/12/07 16:58:53;;;;;;;47.88;25.67;;;3.00;99.90;;;;;;5034890;28;20025;-51
2021/12/07 17:01:20;;;;;;;49.53;25.58;;;3.00;99.90;;;;;;5034670;28;20029;-51
2021/12/07 17:03:47;;;;;;;49.28;24.67;;;3.00;99.90;;;;;;5035074;28;20108;-51
2021/12/07 17:06:14;;;;;;;49.90;26.70;;;3.00;99.90;;;;;;5034854;28;20072;-51
2021/12/07 17:08:41;;;;;;;46.03;24.73;;;3.00;99.90;;;;;;5034875;28;20033;-51
2021/12/07 17:11:08;;;;;;;48.38;24.65;;;2.90;99.90;;;;;;5034959;28;20483;-51
2021/12/07 17:13:35;;;;;;;46.30;26.17;;;2.90;99.90;;;;;;5034778;28;20112;-51
2021/12/07 17:16:02;;;;;;;48.88;26.00;;;2.80;99.90;;;;;;5034824;28;20519;-51
2021/12/07 17:18:28;;;;;;;51.90;26.98;;;2.80;99.90;;;;;;5034717;28;20115;-51
2021/12/07 17:20:55;;;;;;;44.33;25.13;;;2.80;99.90;;;;;;5035053;28;20041;-51
2021/12/07 17:23:21;;;;;;;44.22;25.48;;;2.70;99.90;;;;;;5034647;28;20021;-51
2021/12/07 17:25:47;;;;;;;48.45;25.23;;;2.70;99.90;;;;;;5034867;28;20593;-51
2021/12/07 17:28:14;;;;;;;51.25;27.38;;;2.70;99.90;;;;;;5034902;28;20029;-51
2021/12/07 17:30:40;;;;;;;49.00;26.40;;;2.60;99.90;;;;;;5034763;28;20045;-51
2021/12/07 17:33:06;;;;;;;51.65;28.10;;;2.60;99.90;;;;;;5034662;28;20049;-51
2021/12/07 17:35:33;;;;;;;47.95;26.13;;;2.60;99.90;;;;;;5034641;28;20032;-51
2021/12/07 17:38:00;;;;;;;45.88;24.65;;;2.60;99.90;;;;;;5037372;28;20375;-51
2021/12/07 17:40:29;;;;;;;47.67;26.23;;;2.60;99.90;;;;;;5038655;28;20033;-51
2021/12/07 17:42:57;;;;;;;46.40;26.52;;;2.60;99.90;;;;;;5038475;28;20029;-51
2021/12/07 17:45:23;;;;;;;51.30;29.00;;;2.60;99.90;;;;;;5038715;28;20033;-51
2021/12/07 17:47:53;;;;;;;53.22;27.63;;;2.50;99.90;;;;;;5038444;28;20021;-51
2021/12/07 17:50:19;;;;;;;52.97;28.50;;;2.50;99.90;;;;;;5038556;28;20490;-51
2021/12/07 17:52:45;;;;;;;54.53;28.23;;;2.50;99.90;;;;;;5038489;28;20053;-51
2021/12/07 17:55:15;;;;;;;61.90;31.40;;;2.50;99.90;;;;;;5038275;28;20155;-51
2021/12/07 17:57:42;;;;;;;51.65;28.10;;;2.50;99.90;;;;;;5038489;28;20025;-51
2021/12/07 18:00:13;;;;;;;54.22;29.15;;;2.40;99.90;;;;;;5038273;28;20429;-51
2021/12/07 18:02:44;;;;;;;63.35;33.58;;;2.40;99.90;;;;;;5038583;28;20548;-51
2021/12/07 18:05:10;;;;;;;69.25;34.60;;;2.40;99.90;;;;;;5038322;28;20045;-51
2021/12/07 18:07:42;;;;;;;76.05;36.78;;;2.40;99.90;;;;;;5038118;28;20520;-51
2021/12/07 18:10:11;;;;;;;84.30;39.55;;;2.30;99.90;;;;;;5018436;28;20116;-51
2021/12/07 18:12:38;;;;;;;126.60;54.45;;;2.30;99.90;;;;;;5018337;28;20083;-51
2021/12/07 18:15:06;;;;;;;115.28;49.30;;;2.30;99.90;;;;;;5018112;28;20073;-51
2021/12/07 18:17:32;;;;;;;118.28;53.17;;;2.20;99.90;;;;;;5018215;28;20109;-51
2021/12/07 18:19:58;;;;;;;141.73;59.83;;;2.20;99.90;;;;;;5018165;28;20073;-51
2021/12/07 18:22:24;;;;;;;205.52;79.20;;;2.20;99.90;;;;;;5018049;28;20107;-51
2021/12/07 18:24:50;;;;;;;140.02;57.95;;;2.10;99.90;;;;;;5018058;28;20030;-51
2021/12/07 18:27:18;;;;;;;143.52;58.15;;;2.10;99.90;;;;;;5018183;28;20137;-51
2021/12/07 18:29:45;;;;;;;145.73;59.22;;;2.00;99.90;;;;;;5017967;28;20025;-51
2021/12/07 18:32:11;;;;;;;128.63;55.08;;;1.90;99.90;;;;;;5017836;28;20036;-51
2021/12/07 18:34:37;;;;;;;194.02;75.55;;;1.90;99.90;;;;;;5017936;28;20030;-51
2021/12/07 18:37:04;;;;;;;173.68;66.25;;;1.80;99.90;;;;;;5017861;28;20065;-51
2021/12/07 18:39:30;;;;;;;73.70;35.42;;;1.80;99.90;;;;;;5018059;28;20037;-51
2021/12/07 18:41:56;;;;;;;134.25;54.78;;;1.70;99.90;;;;;;5017869;28;20030;-51
2021/12/07 18:44:22;;;;;;;155.30;63.33;;;1.80;99.90;;;;;;5033794;28;20109;-51
2021/12/07 18:46:48;;;;;;;91.13;40.75;;;1.70;99.90;;;;;;5037697;28;20279;-51
2021/12/07 18:49:14;;;;;;;75.57;37.55;;;1.60;99.90;;;;;;5037061;28;20029;-51
2021/12/07 18:51:42;;;;;;;79.03;38.53;;;1.60;99.90;;;;;;5037250;28;20065;-51
2021/12/07 18:54:09;;;;;;;68.10;34.65;;;1.50;99.90;;;;;;5037405;28;20025;-51
2021/12/07 18:56:37;;;;;;;58.88;31.85;;;1.40;99.90;;;;;;5037199;28;20057;-51
2021/12/07 18:59:04;;;;;;;61.28;31.48;;;1.40;99.90;;;;;;5037156;28;20029;-51
2021/12/07 19:01:31;;;;;;;63.65;33.97;;;1.30;99.90;;;;;;5037422;28;20041;-51
2021/12/07 19:03:57;;;;;;;54.72;29.80;;;1.30;99.90;;;;;;5037327;28;20029;-51
2021/12/07 19:06:23;;;;;;;49.85;27.33;;;1.30;99.90;;;;;;5036896;28;20172;-51
2021/12/07 19:08:49;;;;;;;50.25;27.83;;;1.30;99.90;;;;;;5037583;28;20084;-51
2021/12/07 19:11:16;;;;;;;50.95;28.17;;;1.20;99.90;;;;;;5036866;28;20467;-51
2021/12/07 19:13:43;;;;;;;59.20;30.90;;;1.20;99.90;;;;;;5037142;28;20053;-51
2021/12/07 19:16:09;;;;;;;56.55;29.67;;;1.10;99.90;;;;;;5036690;28;20084;-51
2021/12/07 19:18:43;;;;;;;59.40;31.30;;;1.10;99.90;;;;;;5036700;28;20029;-51
2021/12/07 19:21:11;;;;;;;61.95;32.47;;;1.10;99.90;;;;;;5036670;28;20084;-51
2021/12/07 19:23:38;;;;;;;63.00;31.92;;;1.00;99.90;;;;;;5036876;28;20398;-51
2021/12/07 19:26:05;;;;;;;63.30;32.65;;;1.10;99.90;;;;;;5036815;28;20033;-51
2021/12/07 19:28:32;;;;;;;60.72;34.00;;;1.00;99.90;;;;;;5036641;28;20100;-51
2021/12/07 19:31:00;;;;;;;58.22;32.13;;;0.90;99.90;;;;;;5036655;28;20033;-51
2021/12/07 19:33:27;;;;;;;67.32;34.90;;;1.00;99.90;;;;;;5036553;28;20033;-51
2021/12/07 19:35:57;;;;;;;63.63;31.30;;;1.00;99.90;;;;;;5036379;28;20051;-51
2021/12/07 19:38:25;;;;;;;57.85;30.50;;;0.90;99.90;;;;;;5036510;28;20494;-51
2021/12/07 19:40:52;;;;;;;58.63;29.55;;;0.90;99.90;;;;;;5036296;28;20040;-51
2021/12/07 19:43:19;;;;;;;61.80;31.10;;;0.90;99.90;;;;;;5036291;28;20156;-51
2021/12/07 19:45:47;;;;;;;65.57;32.40;;;1.00;99.90;;;;;;5036496;28;20112;-51
2021/12/07 19:48:14;;;;;;;66.78;34.15;;;0.90;99.90;;;;;;5036326;28;20025;-51
2021/12/07 19:50:46;;;;;;;64.70;34.30;;;1.00;99.90;;;;;;5036021;28;20517;-51
2021/12/07 19:53:16;;;;;;;63.08;33.33;;;0.90;99.90;;;;;;5036328;28;20030;-51
2021/12/07 19:55:43;;;;;;;60.65;32.08;;;0.80;99.90;;;;;;5036092;28;20087;-51
2021/12/07 19:58:09;;;;;;;62.83;33.75;;;0.80;99.90;;;;;;5036204;28;20497;-51
2021/12/07 20:00:41;;;;;;;60.95;33.70;;;0.70;99.90;;;;;;5035347;28;20028;-51
2021/12/07 20:03:08;;;;;;;67.63;32.50;;;0.70;99.90;;;;;;5035967;28;20029;-51
2021/12/07 20:05:35;;;;;;;61.13;32.47;;;0.80;99.90;;;;;;5036099;28;20087;-51
2021/12/07 20:08:03;;;;;;;62.75;32.70;;;0.70;99.90;;;;;;5035926;28;20551;-52
2021/12/07 20:10:30;;;;;;;61.10;32.58;;;0.60;99.90;;;;;;5035755;28;20053;-51
2021/12/07 20:12:57;;;;;;;59.33;32.05;;;0.50;99.90;;;;;;5035767;28;20542;-51
2021/12/07 20:15:24;;;;;;;64.65;33.58;;;0.50;99.90;;;;;;5035614;28;20051;-51
2021/12/07 20:17:51;;;;;;;66.28;32.70;;;0.50;99.90;;;;;;5035734;28;20044;-51
2021/12/07 20:20:18;;;;;;;74.30;36.17;;;0.50;99.90;;;;;;5035690;28;20030;-51
2021/12/07 20:22:45;;;;;;;72.07;36.50;;;0.50;99.90;;;;;;5035678;28;20030;-51
2021/12/07 20:25:12;;;;;;;72.47;35.22;;;0.40;99.90;;;;;;5035639;28;20030;-51
2021/12/07 20:27:39;;;;;;;72.53;36.00;;;0.40;99.90;;;;;;5035608;28;20040;-51
2021/12/07 20:30:08;;;;;;;72.45;36.03;;;0.30;99.90;;;;;;5035493;28;20025;-51
2021/12/07 20:32:34;;;;;;;71.75;36.33;;;0.30;99.90;;;;;;5035449;28;20386;-51
2021/12/07 20:35:00;;;;;;;76.35;37.67;;;0.30;99.90;;;;;;5035475;28;20053;-51
2021/12/07 20:37:26;;;;;;;68.47;36.17;;;0.30;99.90;;;;;;5035423;28;20103;-51
2021/12/07 20:39:52;;;;;;;91.82;42.95;;;0.30;99.90;;;;;;5035218;28;20029;-51
2021/12/07 20:42:18;;;;;;;84.18;40.53;;;0.30;99.90;;;;;;5035167;28;20101;-52
2021/12/07 20:44:45;;;;;;;88.40;42.33;;;0.30;99.90;;;;;;5035164;28;20052;-51
2021/12/07 20:47:12;;;;;;;85.13;40.97;;;0.30;99.90;;;;;;5035338;28;20041;-51
2021/12/07 20:49:38;;;;;;;86.57;40.97;;;0.20;99.90;;;;;;5035203;28;20464;-51
2021/12/07 20:52:06;;;;;;;87.82;42.55;;;0.20;99.90;;;;;;5035166;28;20382;-51
2021/12/07 20:54:34;;;;;;;80.82;40.90;;;0.10;99.90;;;;;;5035186;28;20029;-51
2021/12/07 20:57:01;;;;;;;85.18;40.35;;;0.10;99.90;;;;;;5033856;28;20037;-51
2021/12/07 20:59:27;;;;;;;79.50;37.67;;;0.10;99.90;;;;;;5035045;28;20063;-51
2021/12/07 21:01:53;;;;;;;77.53;38.08;;;0.10;99.90;;;;;;5034988;28;20056;-51
2021/12/07 21:04:19;;;;;;;81.18;37.75;;;0.10;99.90;;;;;;5035175;28;20026;-51
2021/12/07 21:06:47;;;;;;;79.38;37.47;;;0.00;99.90;;;;;;5034946;28;20486;-51
2021/12/07 21:09:13;;;;;;;83.10;38.20;;;0.00;99.90;;;;;;5034965;28;20256;-51
2021/12/07 21:11:39;;;;;;;89.20;40.72;;;0.00;99.90;;;;;;5034753;28;20033;-51
2021/12/07 21:14:05;;;;;;;85.75;41.40;;;0.00;99.90;;;;;;5034860;28;20039;-51
2021/12/07 21:16:32;;;;;;;92.05;43.67;;;-0.10;99.90;;;;;;5034645;28;20136;-51
2021/12/07 21:18:57;;;;;;;88.32;43.88;;;-0.10;99.90;;;;;;5034756;28;20029;-51
2021/12/07 21:21:23;;;;;;;89.88;42.00;;;-0.10;99.90;;;;;;5034877;28;20315;-51
2021/12/07 21:23:52;;;;;;;86.25;42.33;;;-0.20;99.90;;;;;;5034967;28;20022;-51
2021/12/07 21:26:23;;;;;;;90.18;43.58;;;-0.20;99.90;;;;;;5034827;28;20124;-51
2021/12/07 21:28:51;;;;;;;92.97;42.17;;;-0.20;99.90;;;;;;5034837;28;20025;-51
2021/12/07 21:31:18;;;;;;;93.28;42.78;;;-0.20;99.90;;;;;;5034787;28;20026;-51
2021/12/07 21:33:44;;;;;;;94.18;42.70;;;-0.20;99.90;;;;;;5035153;28;20025;-51
2021/12/07 21:36:10;;;;;;;94.25;43.42;;;-0.30;99.90;;;;;;5034492;28;20402;-51
2021/12/07 21:38:37;;;;;;;96.68;43.65;;;-0.30;99.90;;;;;;5034604;28;20037;-51
2021/12/07 21:41:04;;;;;;;105.10;46.08;;;-0.30;99.90;;;;;;5034762;28;20034;-51
2021/12/07 21:43:31;;;;;;;100.43;46.40;;;-0.30;99.90;;;;;;5034485;28;20026;-51
2021/12/07 21:45:57;;;;;;;96.47;45.45;;;-0.30;99.90;;;;;;5034667;28;20103;-52
2021/12/07 21:48:23;;;;;;;102.68;47.60;;;-0.30;99.90;;;;;;5034864;28;20048;-51
2021/12/07 21:50:49;;;;;;;110.88;50.17;;;-0.40;99.90;;;;;;5034702;28;20055;-52
2021/12/07 21:53:15;;;;;;;97.20;48.78;;;-0.40;99.90;;;;;;5034713;28;20053;-51
2021/12/07 21:55:43;;;;;;;111.68;50.28;;;-0.40;99.90;;;;;;5034265;28;20057;-51
2021/12/07 21:58:09;;;;;;;106.15;51.15;;;-0.40;99.90;;;;;;5034528;28;20104;-51
2021/12/07 22:00:40;;;;;;;122.32;55.15;;;-0.50;99.90;;;;;;5034343;28;20479;-51
2021/12/07 22:03:07;;;;;;;110.50;50.80;;;-0.50;99.90;;;;;;5034757;28;20105;-51
2021/12/07 22:05:33;;;;;;;103.18;48.67;;;-0.50;99.90;;;;;;5034691;28;20046;-51
2021/12/07 22:07:59;;;;;;;120.30;54.35;;;-0.60;99.90;;;;;;5034341;28;20254;-51
2021/12/07 22:10:26;;;;;;;136.35;59.83;;;-0.60;99.90;;;;;;5034339;28;20033;-51